createdAt,value
2022-08-09T00:01:54.071Z,6.00
2022-08-09T00:05:03.068Z,5.05
2022-08-09T00:08:32.297Z,5.50
2022-08-09T00:12:03.920Z,5.60
2022-08-09T00:14:58.536Z,5.78
2022-08-09T00:18:11.506Z,5.03
2022-08-09T00:21:15.053Z,5.93
2022-08-09T00:24:20.900Z,5.10
2022-08-09T00:27:23.752Z,5.65
2022-08-09T00:30:30.679Z,5.28
2022-08-09T00:33:50.610Z,4.70
2022-08-09T00:36:54.478Z,6.00
2022-08-09T00:40:09.818Z,5.70
2022-08-09T00:44:16.261Z,4.93
2022-08-09T00:46:56.622Z,5.63
2022-08-09T00:50:05.399Z,6.45
2022-08-09T00:53:11.672Z,7.05
2022-08-09T00:56:16.808Z,6.27
2022-08-09T00:59:40.558Z,5.53
2022-08-09T01:02:48.651Z,6.13
2022-08-09T01:05:58.460Z,5.60
2022-08-09T01:09:36.786Z,5.68
2022-08-09T01:12:48.291Z,6.40
2022-08-09T01:15:56.358Z,5.75
2022-08-09T01:19:04.745Z,5.97
2022-08-09T01:22:40.902Z,5.43
2022-08-09T01:26:02.142Z,5.80
2022-08-09T01:29:08.078Z,6.17
2022-08-09T01:32:29.925Z,5.90
2022-08-09T01:35:42.129Z,5.72
2022-08-09T01:38:48.448Z,5.90
2022-08-09T01:41:53.385Z,6.75
2022-08-09T01:45:01.637Z,6.27
2022-08-09T01:48:06.878Z,5.50
2022-08-09T01:51:11.988Z,6.30
2022-08-09T01:54:32.777Z,6.35
2022-08-09T01:57:40.335Z,6.05
2022-08-09T02:00:51.383Z,5.63
2022-08-09T02:03:57.584Z,6.20
2022-08-09T02:07:15.364Z,5.93
2022-08-09T02:10:28.585Z,7.03
2022-08-09T02:13:40.393Z,6.72
2022-08-09T02:16:59.729Z,6.17
2022-08-09T02:20:09.160Z,6.38
2022-08-09T02:23:16.924Z,7.00
2022-08-09T02:26:27.009Z,7.63
2022-08-09T02:29:34.883Z,6.30
2022-08-09T02:32:44.865Z,5.80
2022-08-09T02:36:03.385Z,6.03
2022-08-09T02:39:14.284Z,6.38
2022-08-09T02:42:29.113Z,6.15
2022-08-09T02:45:35.674Z,6.15
2022-08-09T02:48:46.178Z,6.07
2022-08-09T02:51:54.617Z,6.65
2022-08-09T02:55:00.061Z,6.72
2022-08-09T02:58:32.926Z,7.07
2022-08-09T03:02:05.117Z,5.82
2022-08-09T03:04:58.045Z,6.57
2022-08-09T03:08:05.965Z,5.78
2022-08-09T03:11:10.267Z,7.28
2022-08-09T03:14:14.508Z,6.15
2022-08-09T03:17:26.353Z,6.43
2022-08-09T03:20:32.330Z,6.70
2022-08-09T03:23:35.880Z,6.93
2022-08-09T03:26:45.043Z,6.55
2022-08-09T03:29:58.211Z,7.35
2022-08-09T03:33:17.518Z,6.75
2022-08-09T03:36:27.748Z,6.85
2022-08-09T03:39:37.902Z,7.17
2022-08-09T03:42:43.201Z,6.07
2022-08-09T03:46:04.649Z,6.88
2022-08-09T03:49:10.419Z,6.18
2022-08-09T03:52:17.673Z,6.88
2022-08-09T03:55:21.349Z,6.20
2022-08-09T03:58:26.189Z,7.00
2022-08-09T04:01:32.028Z,7.40
2022-08-09T04:04:38.794Z,7.95
2022-08-09T04:07:52.934Z,6.80
2022-08-09T04:11:01.465Z,6.97
2022-08-09T04:14:59.143Z,6.07
2022-08-09T04:17:29.569Z,5.93
2022-08-09T04:20:32.961Z,7.75
2022-08-09T04:23:38.098Z,6.47
2022-08-09T04:26:42.515Z,7.03
2022-08-09T04:29:50.091Z,7.47
2022-08-09T04:32:54.197Z,6.85
2022-08-09T04:35:57.071Z,6.50
2022-08-09T04:39:03.591Z,7.05
2022-08-09T04:42:09.318Z,7.00
2022-08-09T04:45:12.775Z,7.85
2022-08-09T04:48:15.952Z,7.45
2022-08-09T04:51:18.632Z,7.57
2022-08-09T04:54:24.475Z,6.70
2022-08-09T04:57:54.432Z,7.13
2022-08-09T05:00:50.577Z,7.53
2022-08-09T05:03:58.670Z,6.88
2022-08-09T05:07:01.503Z,7.90
2022-08-09T05:10:06.341Z,6.93
2022-08-09T05:13:10.798Z,8.13
2022-08-09T05:16:15.067Z,7.35
2022-08-09T05:19:24.482Z,7.03
2022-08-09T05:22:35.819Z,6.30
2022-08-09T05:25:53.393Z,8.13
2022-08-09T05:28:59.626Z,6.97
2022-08-09T05:32:05.876Z,7.55
2022-08-09T05:35:09.613Z,8.13
2022-08-09T05:38:12.421Z,6.90
2022-08-09T05:41:26.159Z,7.70
2022-08-09T05:44:32.626Z,6.87
2022-08-09T05:47:35.842Z,6.82
2022-08-09T05:51:16.957Z,7.57
2022-08-09T05:54:17.995Z,7.80
2022-08-09T05:57:50.365Z,11.32
2022-08-09T06:00:44.827Z,7.80
2022-08-09T06:03:58.474Z,7.25
2022-08-09T06:07:01.586Z,7.55
2022-08-09T06:10:05.799Z,6.90
2022-08-09T06:13:18.959Z,7.18
2022-08-09T06:16:23.721Z,7.50
2022-08-09T06:19:27.494Z,7.30
2022-08-09T06:22:30.550Z,7.07
2022-08-09T06:25:33.263Z,7.82
2022-08-09T06:28:38.541Z,8.70
2022-08-09T06:32:17.224Z,7.60
2022-08-09T06:35:10.081Z,7.70
2022-08-09T06:38:12.887Z,6.63
2022-08-09T06:41:20.463Z,7.40
2022-08-09T06:44:24.768Z,6.57
2022-08-09T06:47:39.498Z,6.30
2022-08-09T06:50:42.845Z,6.82
2022-08-09T06:53:46.052Z,6.07
2022-08-09T06:56:52.579Z,7.45
2022-08-09T07:00:48.791Z,7.20
2022-08-09T07:03:19.520Z,7.43
2022-08-09T07:06:31.539Z,8.02
2022-08-09T07:09:57.142Z,5.80
2022-08-09T07:12:57.914Z,7.25
2022-08-09T07:16:41.037Z,6.78
2022-08-09T07:19:25.297Z,6.63
2022-08-09T07:22:42.242Z,6.10
2022-08-09T07:25:52.437Z,6.40
2022-08-09T07:29:09.112Z,6.05
2022-08-09T07:32:16.335Z,5.80
2022-08-09T07:35:19.839Z,5.87
2022-08-09T07:38:23.724Z,5.72
2022-08-09T07:41:38.868Z,5.38
2022-08-09T07:44:51.649Z,6.13
2022-08-09T07:48:04.484Z,4.78
2022-08-09T07:52:02.861Z,5.27
2022-08-09T07:54:31.869Z,6.32
2022-08-09T07:57:35.870Z,5.32
2022-08-09T08:00:55.494Z,6.15
2022-08-09T08:04:03.972Z,5.72
2022-08-09T08:08:06.766Z,5.50
2022-08-09T08:10:37.209Z,5.72
2022-08-09T08:13:55.930Z,6.07
2022-08-09T08:17:07.717Z,5.00
2022-08-09T08:20:13.756Z,5.15
2022-08-09T08:23:17.816Z,4.73
2022-08-09T08:26:26.692Z,5.13
2022-08-09T08:29:45.249Z,5.05
2022-08-09T08:32:53.919Z,5.68
2022-08-09T08:36:00.173Z,5.63
2022-08-09T08:39:04.751Z,6.00
2022-08-09T08:42:07.692Z,3.85
2022-08-09T08:45:13.298Z,4.18
2022-08-09T08:48:19.563Z,4.78
2022-08-09T08:51:24.601Z,5.03
2022-08-09T08:54:28.130Z,4.80
2022-08-09T08:57:34.754Z,5.45
2022-08-09T09:00:38.851Z,4.68
2022-08-09T09:03:43.665Z,5.80
2022-08-09T09:06:50.086Z,3.97
2022-08-09T09:10:02.533Z,4.67
2022-08-09T09:13:09.445Z,4.80
2022-08-09T09:16:14.211Z,5.63
2022-08-09T09:22:56.379Z,3.92
2022-08-09T09:26:01.716Z,3.77
2022-08-09T09:29:16.779Z,4.43
2022-08-09T09:32:32.423Z,5.88
2022-08-09T09:36:00.611Z,4.40
2022-08-09T09:39:10.161Z,4.63
2022-08-09T09:42:26.274Z,5.53
2022-08-09T09:45:29.461Z,4.75
2022-08-09T09:48:33.697Z,4.35
2022-08-09T09:51:40.308Z,4.20
2022-08-09T09:54:48.801Z,5.18
2022-08-09T09:58:02.347Z,5.00
2022-08-09T10:01:30.256Z,4.38
2022-08-09T10:04:41.337Z,5.00
2022-08-09T10:08:10.705Z,5.15
2022-08-09T10:11:54.045Z,4.75
2022-08-09T10:14:43.928Z,6.87
2022-08-09T10:17:56.370Z,4.50
2022-08-09T10:21:07.872Z,4.30
2022-08-09T10:24:15.952Z,4.55
2022-08-09T10:27:34.520Z,4.38
2022-08-09T10:32:27.895Z,5.37
2022-08-09T10:34:11.399Z,4.35
2022-08-09T10:37:27.858Z,4.50
2022-08-09T10:40:41.155Z,5.65
2022-08-09T10:44:00.070Z,4.32
2022-08-09T10:48:26.552Z,4.70
2022-08-09T10:51:09.359Z,4.38
2022-08-09T10:54:13.764Z,4.22
2022-08-09T10:57:16.875Z,4.63
2022-08-09T11:03:03.105Z,4.25
2022-08-09T11:04:31.170Z,5.30
2022-08-09T11:07:57.725Z,4.88
2022-08-09T11:11:00.559Z,4.60
2022-08-09T11:14:31.927Z,4.50
2022-08-09T11:17:57.026Z,4.68
2022-08-09T11:21:05.919Z,4.50
2022-08-09T11:24:10.579Z,5.45
2022-08-09T11:28:03.789Z,4.82
2022-08-09T11:30:53.042Z,6.07
2022-08-09T11:34:04.756Z,4.70
2022-08-09T11:37:18.002Z,5.00
2022-08-09T11:40:30.495Z,5.75
2022-08-09T11:43:42.181Z,5.50
2022-08-09T11:46:57.051Z,4.78
2022-08-09T11:50:54.359Z,5.40
2022-08-09T11:53:58.774Z,5.53
2022-08-09T11:56:50.482Z,4.65
2022-08-09T11:59:53.804Z,5.93
2022-08-09T12:02:58.301Z,4.63
2022-08-09T12:06:10.508Z,3.63
2022-08-09T12:09:17.559Z,4.30
2022-08-09T12:12:29.035Z,4.93
2022-08-09T12:15:49.760Z,4.25
2022-08-09T12:18:54.694Z,5.75
2022-08-09T12:22:03.294Z,3.85
2022-08-09T12:25:14.897Z,4.33
2022-08-09T12:29:11.993Z,6.28
2022-08-09T12:32:01.859Z,5.07
2022-08-09T12:35:12.518Z,5.43
2022-08-09T12:38:37.683Z,4.18
2022-08-09T12:41:41.341Z,5.13
2022-08-09T12:44:52.418Z,6.47
2022-08-09T12:47:57.394Z,4.18
2022-08-09T12:51:03.989Z,4.57
2022-08-09T12:54:09.341Z,4.80
2022-08-09T12:57:12.030Z,4.63
2022-08-09T13:00:18.847Z,4.13
2022-08-09T13:03:53.665Z,4.63
2022-08-09T13:06:54.196Z,4.15
2022-08-09T13:10:04.201Z,3.47
2022-08-09T13:13:10.980Z,5.17
2022-08-09T13:16:17.588Z,5.43
2022-08-09T13:20:09.708Z,4.53
2022-08-09T13:23:05.739Z,5.13
2022-08-09T13:26:36.791Z,5.70
2022-08-09T13:30:02.589Z,5.03
2022-08-09T13:33:02.616Z,4.07
2022-08-09T13:36:24.080Z,4.13
2022-08-09T13:41:19.092Z,4.03
2022-08-09T13:42:55.127Z,5.30
2022-08-09T13:46:44.429Z,4.20
2022-08-09T13:49:20.602Z,5.43
2022-08-09T13:52:23.483Z,5.13
2022-08-09T13:55:28.937Z,4.10
2022-08-09T13:58:34.463Z,4.75
2022-08-09T14:02:00.467Z,7.13
2022-08-09T14:05:00.646Z,5.80
2022-08-09T14:08:05.293Z,4.90
2022-08-09T14:11:16.007Z,4.07
2022-08-09T14:14:26.819Z,3.70
2022-08-09T14:17:32.675Z,3.80
2022-08-09T14:20:53.777Z,4.00
2022-08-09T14:23:57.499Z,5.03
2022-08-09T14:27:01.240Z,3.17
2022-08-09T14:30:37.070Z,3.33
2022-08-09T14:33:29.846Z,4.03
2022-08-09T14:36:35.374Z,4.88
2022-08-09T14:39:46.438Z,4.73
2022-08-09T14:42:51.014Z,3.63
2022-08-09T14:46:59.034Z,4.22
2022-08-09T14:49:18.454Z,4.13
2022-08-09T14:52:26.220Z,6.70
2022-08-09T14:55:32.019Z,4.40
2022-08-09T14:58:37.750Z,5.07
2022-08-09T15:01:48.121Z,4.28
2022-08-09T15:04:52.258Z,4.60
2022-08-09T15:07:56.913Z,5.30
2022-08-09T15:11:07.028Z,5.10
2022-08-09T15:14:13.440Z,4.50
2022-08-09T15:17:17.862Z,3.90
2022-08-09T15:21:55.665Z,7.30
2022-08-09T15:24:02.954Z,8.15
2022-08-09T15:27:07.140Z,8.47
2022-08-09T15:31:00.670Z,5.32
2022-08-09T15:34:16.277Z,5.75
2022-08-09T15:37:04.199Z,3.67
2022-08-09T15:40:11.649Z,4.57
2022-08-09T15:43:14.914Z,5.93
2022-08-09T15:46:31.868Z,4.03
2022-08-09T15:49:38.803Z,5.03
2022-08-09T15:53:05.995Z,3.70
2022-08-09T15:56:23.393Z,4.63
2022-08-09T15:59:36.935Z,3.40
2022-08-09T16:02:40.439Z,3.53
2022-08-09T16:05:53.106Z,3.65
2022-08-09T16:09:01.135Z,3.35
2022-08-09T16:12:11.593Z,3.85
2022-08-09T16:16:11.517Z,4.10
2022-08-09T16:18:37.862Z,3.10
2022-08-09T16:21:51.993Z,3.60
2022-08-09T16:24:56.851Z,3.83
2022-08-09T16:28:02.197Z,3.45
2022-08-09T16:31:16.136Z,3.93
2022-08-09T16:34:19.082Z,4.13
2022-08-09T16:37:55.789Z,4.10
2022-08-09T16:40:50.630Z,4.43
2022-08-09T16:43:54.007Z,4.07
2022-08-09T16:47:04.209Z,3.80
2022-08-09T16:50:31.145Z,4.15
2022-08-09T16:53:51.367Z,4.07
2022-08-09T16:57:00.741Z,4.00
2022-08-09T17:00:03.663Z,3.92
2022-08-09T17:03:06.402Z,2.83
2022-08-09T17:06:28.896Z,3.72
2022-08-09T17:09:44.007Z,3.80
2022-08-09T17:12:49.781Z,5.80
2022-08-09T17:16:00.301Z,4.28
2022-08-09T17:19:05.334Z,3.57
2022-08-09T17:22:08.275Z,5.38
2022-08-09T17:25:13.718Z,4.72
2022-08-09T17:28:16.443Z,3.67
2022-08-09T17:31:21.295Z,4.18
2022-08-09T17:35:10.898Z,4.50
2022-08-09T17:38:14.410Z,2.88
2022-08-09T17:41:12.319Z,4.28
2022-08-09T17:44:41.667Z,3.65
2022-08-09T17:47:49.813Z,5.88
2022-08-09T17:51:06.528Z,5.40
2022-08-09T17:54:28.060Z,4.70
2022-08-09T17:58:02.883Z,4.53
2022-08-09T18:00:58.567Z,3.25
2022-08-09T18:04:01.519Z,3.35
2022-08-09T18:07:07.684Z,4.27
2022-08-09T18:10:11.696Z,3.90
2022-08-09T18:13:43.164Z,3.70
2022-08-09T18:16:39.398Z,6.10
2022-08-09T18:20:56.439Z,4.30
2022-08-09T18:24:10.418Z,3.83
2022-08-09T18:26:38.002Z,3.30
2022-08-09T18:30:38.509Z,5.65
2022-08-09T18:33:13.410Z,4.60
2022-08-09T18:36:32.173Z,4.40
2022-08-09T18:39:39.635Z,4.60
2022-08-09T18:42:46.783Z,4.00
2022-08-09T18:46:50.384Z,4.20
2022-08-09T18:49:16.427Z,3.33
2022-08-09T18:52:24.775Z,4.78
2022-08-09T18:55:56.265Z,5.23
2022-08-09T18:58:55.323Z,5.15
2022-08-09T19:02:00.316Z,7.32
2022-08-09T19:05:20.318Z,5.15
2022-08-09T19:08:32.114Z,4.53
2022-08-09T19:11:38.223Z,4.90
2022-08-09T19:14:43.320Z,5.18
2022-08-09T19:17:55.020Z,5.50
2022-08-09T19:21:00.587Z,5.13
2022-08-09T19:24:33.356Z,4.88
2022-08-09T19:27:28.747Z,4.03
2022-08-09T19:30:32.413Z,3.83
2022-08-09T19:33:37.445Z,4.63
2022-08-09T19:36:40.076Z,4.10
2022-08-09T19:40:03.732Z,5.55
2022-08-09T19:43:10.376Z,4.57
2022-08-09T19:46:34.973Z,4.18
2022-08-09T19:50:07.252Z,4.15
2022-08-09T19:53:04.568Z,3.70
2022-08-09T19:56:07.818Z,3.42
2022-08-09T19:59:57.779Z,4.80
2022-08-09T20:04:12.549Z,2.83
2022-08-09T20:06:22.690Z,3.80
2022-08-09T20:09:44.391Z,4.30
2022-08-09T20:12:49.059Z,5.75
2022-08-09T20:16:35.773Z,4.43
2022-08-09T20:19:47.649Z,5.03
2022-08-09T20:22:42.918Z,4.90
2022-08-09T20:25:52.540Z,3.78
2022-08-09T20:28:55.991Z,3.05
2022-08-09T20:32:28.624Z,4.07
2022-08-09T20:35:24.356Z,4.75
2022-08-09T20:38:48.401Z,3.85
2022-08-09T20:41:51.113Z,4.00
2022-08-09T20:45:04.745Z,6.03
2022-08-09T20:48:21.145Z,5.80
2022-08-09T20:51:25.021Z,3.17
2022-08-09T20:54:29.200Z,3.33
2022-08-09T20:57:32.903Z,4.00
2022-08-09T21:00:36.385Z,3.60
2022-08-09T21:05:48.606Z,4.40
2022-08-09T21:07:14.102Z,4.05
2022-08-09T21:10:18.526Z,4.32
2022-08-09T21:13:21.446Z,3.58
2022-08-09T21:16:28.229Z,5.95
2022-08-09T21:20:19.618Z,5.00
2022-08-09T21:22:56.149Z,3.95
2022-08-09T21:26:00.952Z,4.07
2022-08-09T21:29:11.960Z,4.20
2022-08-09T21:32:18.833Z,3.80
2022-08-09T21:35:22.072Z,4.00
2022-08-09T21:38:31.260Z,4.30
2022-08-09T21:42:04.351Z,3.90
2022-08-09T21:44:58.967Z,4.03
2022-08-09T21:48:02.436Z,3.80
2022-08-09T21:51:13.318Z,5.10
2022-08-09T21:54:17.338Z,3.30
2022-08-09T21:57:25.270Z,3.95
2022-08-09T22:00:42.691Z,3.65
2022-08-09T22:03:59.079Z,4.18
2022-08-09T22:07:04.823Z,4.05
2022-08-09T22:10:09.606Z,4.67
2022-08-09T22:13:14.144Z,3.85
2022-08-09T22:16:21.189Z,4.40
2022-08-09T22:19:58.675Z,3.40
2022-08-09T22:22:49.955Z,4.18
2022-08-09T22:26:07.643Z,3.60
2022-08-09T22:32:36.619Z,3.65
2022-08-09T22:36:02.229Z,4.18
2022-08-09T22:39:02.855Z,3.78
2022-08-09T22:42:22.564Z,4.23
2022-08-09T22:48:10.617Z,3.55
2022-08-09T22:48:51.970Z,4.30
2022-08-09T22:51:57.636Z,3.70
2022-08-09T22:55:00.334Z,4.13
2022-08-09T22:58:04.925Z,4.30
2022-08-09T23:01:09.122Z,4.05
2022-08-09T23:04:12.074Z,4.05
2022-08-09T23:08:21.820Z,5.20
2022-08-09T23:10:55.212Z,3.85
2022-08-09T23:13:59.584Z,4.70
2022-08-09T23:17:03.757Z,4.28
2022-08-09T23:20:08.416Z,4.40
2022-08-09T23:23:11.569Z,4.10
2022-08-09T23:26:14.180Z,4.30
2022-08-09T23:29:17.083Z,4.20
2022-08-09T23:32:21.076Z,3.97
2022-08-09T23:35:24.678Z,4.95
2022-08-09T23:38:27.345Z,3.55
2022-08-09T23:41:30.696Z,4.00
2022-08-09T23:44:33.567Z,4.23
2022-08-09T23:47:37.749Z,5.28
2022-08-09T23:50:40.531Z,5.30
2022-08-09T23:53:43.881Z,4.30
2022-08-09T23:56:54.591Z,4.75
